Time;durP1;ratioP1;P1;durP2;ratioP2;P2;SDS_P1;SDS_P2;PMS_P1;PMS_P2;Temp;Humidity;BMP_temperature;BMP_pressure;BME280_temperature;BME280_humidity;BME280_pressure;Samples;Min_cycle;Max_cycle;Signal;HPM_P1;HPM_P2
2023/01/16 00:00:31;;;;;;;4.47;1.10;;;;;;;3.74;100.00;97292.28;2588819;28;20065;-82
2023/01/16 00:02:07;;;;;;;0.73;0.70;;;;;;;3.76;100.00;97298.28;2588831;28;20149;-82
2023/01/16 00:03:22;;;;;;;2.92;0.98;;;;;;;3.65;100.00;97298.47;2588076;28;20069;-84
2023/01/16 00:04:38;;;;;;;3.22;1.00;;;;;;;3.70;100.00;97295.78;2588050;28;20156;-82
2023/01/16 00:05:54;;;;;;;1.88;0.88;;;;;;;3.68;100.00;97293.25;2588752;28;20128;-82
2023/01/16 00:07:09;;;;;;;1.33;0.90;;;;;;;3.66;100.00;97292.41;2588734;28;20427;-84
2023/01/16 00:08:25;;;;;;;0.50;0.47;;;;;;;3.64;100.00;97292.44;2588980;28;20050;-82
2023/01/16 00:09:41;;;;;;;3.92;0.80;;;;;;;3.75;100.00;97292.22;2588858;28;20521;-83
2023/01/16 00:10:56;;;;;;;1.75;1.05;;;;;;;3.85;100.00;97297.25;2587741;28;20050;-82
2023/01/16 00:12:12;;;;;;;1.70;1.20;;;;;;;3.92;100.00;97289.31;2588434;28;20054;-83
2023/01/16 00:13:28;;;;;;;2.58;1.10;;;;;;;3.89;100.00;97286.78;2588791;28;20452;-88
2023/01/16 00:14:54;;;;;;;1.73;0.68;;;;;;;3.75;100.00;97284.47;2587975;28;20386;-82
2023/01/16 00:16:09;;;;;;;1.77;0.88;;;;;;;3.74;100.00;97294.88;2588093;28;20058;-82
2023/01/16 00:17:25;;;;;;;1.70;0.60;;;;;;;3.62;100.00;97290.75;2588354;28;20054;-86
2023/01/16 00:18:41;;;;;;;2.38;0.73;;;;;;;3.61;100.00;97287.31;2589003;28;20057;-83
2023/01/16 00:19:57;;;;;;;1.70;0.90;;;;;;;3.75;100.00;97278.44;2588736;28;20111;-83
2023/01/16 00:21:12;;;;;;;1.90;0.73;;;;;;;3.81;100.00;97280.91;2588794;28;20050;-83
2023/01/16 00:22:28;;;;;;;3.47;0.98;;;;;;;3.81;100.00;97278.31;2588079;28;20181;-82
2023/01/16 00:23:43;;;;;;;1.17;0.82;;;;;;;3.81;100.00;97268.81;2588090;28;20060;-83
2023/01/16 00:24:59;;;;;;;2.63;0.90;;;;;;;3.73;100.00;97264.69;2588616;28;20564;-83
2023/01/16 00:26:15;;;;;;;1.67;1.13;;;;;;;3.85;100.00;97256.69;2588569;28;20057;-83
2023/01/16 00:27:30;;;;;;;2.20;0.70;;;;;;;3.78;100.00;97261.13;2588547;28;20404;-85
2023/01/16 00:28:46;;;;;;;0.80;0.70;;;;;;;3.76;100.00;97265.44;2588709;28;20140;-82
2023/01/16 00:30:03;;;;;;;1.55;0.77;;;;;;;3.64;100.00;97258.78;2588811;28;20485;-83
2023/01/16 00:31:20;;;;;;;3.05;0.90;;;;;;;3.74;100.00;97250.84;2588540;28;20072;-89
2023/01/16 00:32:35;;;;;;;2.95;1.10;;;;;;;3.66;100.00;97253.59;2588844;28;20132;-82
2023/01/16 00:33:51;;;;;;;1.25;0.80;;;;;;;3.52;100.00;97254.72;2588660;28;20056;-83
2023/01/16 00:35:07;;;;;;;1.65;0.95;;;;;;;3.67;100.00;97250.13;2587952;28;20647;-84
2023/01/16 00:36:23;;;;;;;1.65;0.68;;;;;;;3.68;100.00;97244.06;2587885;28;20638;-84
2023/01/16 00:37:39;;;;;;;3.25;1.00;;;;;;;3.70;100.00;97251.78;2588852;28;20061;-83
2023/01/16 00:38:56;;;;;;;1.35;0.77;;;;;;;3.55;100.00;97246.00;2588617;28;20057;-84
2023/01/16 00:40:11;;;;;;;0.82;0.50;;;;;;;3.64;100.00;97243.25;2588954;28;20192;-82
2023/01/16 00:41:27;;;;;;;0.75;0.55;;;;;;;3.67;100.00;97247.53;2588546;28;20974;-85
2023/01/16 00:42:42;;;;;;;2.78;0.70;;;;;;;3.56;100.00;97245.13;2588852;28;20476;-83
2023/01/16 00:43:58;;;;;;;1.25;0.93;;;;;;;3.74;100.00;97246.50;2588783;28;20080;-84
2023/01/16 00:45:14;;;;;;;1.67;0.93;;;;;;;3.78;100.00;97248.19;2588554;28;20137;-84
2023/01/16 00:46:29;;;;;;;2.95;1.00;;;;;;;3.84;100.00;97247.19;2588708;28;20054;-83
2023/01/16 00:47:45;;;;;;;2.03;1.00;;;;;;;3.71;100.00;97249.16;2588767;28;20073;-83
2023/01/16 00:49:01;;;;;;;1.33;0.88;;;;;;;3.73;100.00;97250.00;2586521;28;20057;-83
2023/01/16 00:50:16;;;;;;;1.27;0.52;;;;;;;3.57;100.00;97249.44;2587069;28;20516;-82
2023/01/16 00:51:32;;;;;;;2.83;0.88;;;;;;;3.65;100.00;97249.31;2586894;28;20073;-83
2023/01/16 00:52:48;;;;;;;4.30;1.60;;;;;;;3.74;100.00;97243.91;2587054;28;20394;-82
2023/01/16 00:54:03;;;;;;;1.25;0.90;;;;;;;3.76;100.00;97251.66;2587229;28;20050;-83
2023/01/16 00:55:19;;;;;;;0.63;0.63;;;;;;;3.56;100.00;97245.13;2586814;28;20056;-85
2023/01/16 00:56:35;;;;;;;1.65;0.55;;;;;;;3.59;100.00;97252.84;2586998;28;20050;-83
2023/01/16 00:57:51;;;;;;;1.05;0.63;;;;;;;3.52;100.00;97257.31;2586990;28;20041;-83
2023/01/16 00:59:06;;;;;;;0.52;0.40;;;;;;;3.59;100.00;97239.06;2587003;28;20053;-83
2023/01/16 01:00:22;;;;;;;1.52;0.90;;;;;;;3.73;100.00;97250.00;2587300;28;20057;-82
2023/01/16 01:01:38;;;;;;;1.30;0.60;;;;;;;3.81;100.00;97250.69;2586642;28;20046;-82
2023/01/16 01:02:54;;;;;;;1.42;0.75;;;;;;;3.75;100.00;97249.97;2586833;28;20068;-84
2023/01/16 01:04:11;;;;;;;1.63;0.85;;;;;;;3.76;100.00;97249.91;2586747;28;20053;-87
2023/01/16 01:05:27;;;;;;;1.50;0.70;;;;;;;3.89;100.00;97247.94;2586468;28;20045;-86
2023/01/16 01:06:42;;;;;;;2.80;1.20;;;;;;;3.74;100.00;97254.28;2586663;28;20551;-84
2023/01/16 01:07:58;;;;;;;2.08;0.98;;;;;;;3.66;100.00;97248.41;2587010;28;20056;-84
2023/01/16 01:09:14;;;;;;;2.25;1.00;;;;;;;3.59;100.00;97252.84;2586838;28;20058;-83
2023/01/16 01:10:29;;;;;;;1.45;0.85;;;;;;;3.77;100.00;97248.19;2586719;28;20058;-83
2023/01/16 01:11:45;;;;;;;1.83;1.00;;;;;;;3.74;100.00;97249.09;2587077;28;20062;-82
2023/01/16 01:13:01;;;;;;;1.52;0.82;;;;;;;3.72;100.00;97248.28;2586917;28;20053;-82
2023/01/16 01:14:16;;;;;;;7.03;1.38;;;;;;;3.71;100.00;97246.56;2586961;28;20416;-82
2023/01/16 01:15:32;;;;;;;3.15;1.08;;;;;;;3.93;100.00;97246.16;2586446;28;20362;-83
2023/01/16 01:16:48;;;;;;;2.88;0.82;;;;;;;4.07;100.00;97241.53;2586824;28;20054;-83
2023/01/16 01:18:04;;;;;;;1.58;0.70;;;;;;;3.96;100.00;97231.38;2586953;28;20054;-83
2023/01/16 01:19:20;;;;;;;3.75;1.08;;;;;;;3.73;100.00;97229.28;2586494;28;20064;-83
2023/01/16 01:20:35;;;;;;;1.63;0.80;;;;;;;3.42;100.00;97244.53;2586845;28;20141;-83
2023/01/16 01:21:51;;;;;;;2.33;1.08;;;;;;;3.53;100.00;97240.03;2586972;28;20046;-82
2023/01/16 01:23:07;;;;;;;1.75;0.95;;;;;;;3.48;100.00;97234.94;2585929;28;20140;-82
2023/01/16 01:24:22;;;;;;;2.45;1.00;;;;;;;3.69;100.00;97235.41;2586196;28;20188;-85
2023/01/16 01:25:38;;;;;;;1.52;0.95;;;;;;;3.53;100.00;97227.94;2586641;28;20692;-85
2023/01/16 01:26:54;;;;;;;1.92;0.88;;;;;;;3.62;100.00;97226.91;2586775;28;20061;-83
2023/01/16 01:28:10;;;;;;;0.82;0.80;;;;;;;3.65;100.00;97223.41;2586510;28;20060;-86
2023/01/16 01:29:25;;;;;;;1.92;0.80;;;;;;;3.78;100.00;97230.06;2586664;28;20053;-83
2023/01/16 01:30:41;;;;;;;2.60;0.90;;;;;;;3.55;100.00;97234.81;2586499;28;20064;-83
2023/01/16 01:31:57;;;;;;;3.25;1.20;;;;;;;3.47;100.00;97235.81;2585830;28;20477;-82
2023/01/16 01:33:13;;;;;;;3.22;1.10;;;;;;;3.63;100.00;97228.63;2585915;28;20060;-82
2023/01/16 01:34:32;;;;;;;2.85;1.00;;;;;;;3.57;100.00;97239.09;2586678;28;20137;-84
2023/01/16 01:35:48;;;;;;;2.50;1.10;;;;;;;3.70;100.00;97234.53;2586350;28;20073;-88
2023/01/16 01:37:05;;;;;;;1.65;0.77;;;;;;;3.64;100.00;97237.25;2586417;28;20050;-83
2023/01/16 01:38:21;;;;;;;3.03;1.05;;;;;;;3.70;100.00;97234.53;2586695;28;20136;-83
2023/01/16 01:39:36;;;;;;;3.28;1.10;;;;;;;3.80;100.00;97236.06;2585384;28;20052;-83
2023/01/16 01:40:52;;;;;;;2.20;1.00;;;;;;;3.79;100.00;97238.66;2579448;28;20141;-82
2023/01/16 01:43:51;;;;;;;1.83;1.13;;;;;;;3.67;100.00;97230.25;2586337;28;20058;-84
2023/01/16 01:45:15;;;;;;;;;;;;;;;3.72;100.00;97231.91;2586954;28;20049;-83
2023/01/16 01:46:42;;;;;;;1.75;1.10;;;;;;;3.70;100.00;97234.53;2586300;28;20336;-82
2023/01/16 01:48:13;;;;;;;2.80;1.15;;;;;;;3.28;100.00;97231.88;2586718;28;20398;-85
2023/01/16 01:49:30;;;;;;;2.67;1.15;;;;;;;3.63;100.00;97228.63;2586093;28;20046;-83
2023/01/16 01:50:59;;;;;;;2.95;1.30;;;;;;;3.41;100.00;97228.19;2586481;28;20068;-82
2023/01/16 01:52:15;;;;;;;2.28;1.20;;;;;;;3.32;100.00;97238.69;2586466;28;20112;-83
2023/01/16 01:53:39;;;;;;;4.03;1.30;;;;;;;3.41;100.00;97230.78;2586364;28;20493;-83
2023/01/16 01:55:00;;;;;;;4.43;1.40;;;;;;;3.47;100.00;97238.41;2586380;28;20060;-82
2023/01/16 01:56:26;;;;;;;3.50;1.42;;;;;;;3.28;100.00;97234.47;2586375;28;20084;-82
2023/01/16 01:57:49;;;;;;;3.70;1.08;;;;;;;3.40;100.00;97231.66;2586284;28;20104;-83
2023/01/16 01:59:14;;;;;;;0.60;0.60;;;;;;;3.29;100.00;97229.28;2586469;28;20720;-87
2023/01/16 02:00:30;;;;;;;1.83;0.90;;;;;;;3.53;100.00;97222.78;2585308;28;20082;-83
2023/01/16 02:01:46;;;;;;;1.73;1.00;;;;;;;3.65;100.00;97224.25;2586398;28;21163;-85
2023/01/16 02:03:13;;;;;;;2.75;1.23;;;;;;;3.51;100.00;97226.25;2586479;28;20064;-83
2023/01/16 02:04:32;;;;;;;3.53;0.50;;;;;;;3.36;100.00;97230.00;2586180;28;20052;-86
2023/01/16 02:05:49;;;;;;;3.90;0.70;;;;;;;3.58;100.00;97224.41;2585955;28;20053;-83
2023/01/16 02:07:07;;;;;;;1.23;0.70;;;;;;;3.66;100.00;97217.34;2586066;28;20089;-86
2023/01/16 02:08:29;;;;;;;1.98;0.98;;;;;;;3.44;100.00;97207.41;2586190;28;20077;-83
2023/01/16 02:09:45;;;;;;;1.42;0.80;;;;;;;3.49;100.00;97209.91;2586550;28;20089;-83
2023/01/16 02:11:03;;;;;;;2.15;1.20;;;;;;;3.68;100.00;97210.41;2586127;28;20054;-82
2023/01/16 02:12:19;;;;;;;2.13;1.00;;;;;;;3.45;100.00;97208.28;2586458;28;20477;-82
2023/01/16 02:13:38;;;;;;;0.75;0.73;;;;;;;3.61;100.00;97193.28;2586088;28;20742;-83
2023/01/16 02:14:56;;;;;;;1.92;0.60;;;;;;;3.58;100.00;97195.94;2586245;28;20557;-83
2023/01/16 02:19:57;;;;;;;0.68;0.40;;;;;;;3.49;100.00;97189.22;2586006;28;20057;-82
2023/01/16 02:21:29;;;;;;;3.42;0.80;;;;;;;3.51;100.00;97182.28;2586223;28;20507;-82
2023/01/16 02:23:21;;;;;;;2.90;0.80;;;;;;;3.53;100.00;97178.78;2586075;28;20199;-83
2023/01/16 02:25:21;;;;;;;1.27;0.77;;;;;;;3.51;100.00;97177.09;2585212;28;20055;-87
2023/01/16 02:27:12;;;;;;;0.68;0.57;;;;;;;3.45;100.00;97172.06;2549998;29;20142;-82
2023/01/16 02:28:40;;;;;;;4.57;1.20;;;;;;;3.68;100.00;97166.41;2539563;29;20066;-82
2023/01/16 02:30:14;;;;;;;1.33;0.63;;;;;;;3.62;100.00;97167.38;2548175;29;20062;-83
2023/01/16 02:31:57;;;;;;;1.05;0.75;;;;;;;3.48;100.00;97159.06;2586099;28;20141;-84
2023/01/16 02:33:45;;;;;;;1.35;1.08;;;;;;;3.48;100.00;97161.63;2586262;28;20473;-82
2023/01/16 02:35:09;;;;;;;1.67;0.60;;;;;;;3.44;100.00;97158.25;2584448;28;20050;-83
2023/01/16 02:36:30;;;;;;;1.52;0.80;;;;;;;3.46;100.00;97153.91;2585539;28;20061;-83
2023/01/16 02:37:51;;;;;;;1.40;0.80;;;;;;;3.56;100.00;97153.72;2585981;28;20889;-82
2023/01/16 02:39:24;;;;;;;2.10;1.00;;;;;;;3.74;100.00;97148.16;2586030;28;20046;-82
2023/01/16 02:41:06;;;;;;;2.60;0.80;;;;;;;3.76;100.00;97143.78;2586109;28;20450;-87
2023/01/16 02:42:24;;;;;;;1.65;0.70;;;;;;;3.62;100.00;97144.09;2585886;28;20095;-83
2023/01/16 02:43:52;;;;;;;2.83;0.95;;;;;;;3.85;100.00;97147.06;2586017;28;20054;-81
2023/01/16 02:45:18;;;;;;;1.83;0.75;;;;;;;3.66;100.00;97150.91;2585923;28;20072;-83
2023/01/16 02:46:50;;;;;;;2.13;0.82;;;;;;;3.62;100.00;97149.25;2585727;28;20125;-83
2023/01/16 02:48:24;;;;;;;1.37;0.60;;;;;;;3.46;100.00;97148.72;2586128;28;20559;-83
2023/01/16 02:49:46;;;;;;;2.08;0.75;;;;;;;3.73;100.00;97143.03;2585718;28;20055;-83
2023/01/16 02:51:13;;;;;;;1.48;0.68;;;;;;;3.73;100.00;97137.84;2585674;28;20133;-82
2023/01/16 02:52:37;;;;;;;2.08;0.70;;;;;;;3.73;100.00;97143.03;2585831;28;20553;-83
2023/01/16 02:54:02;;;;;;;1.33;0.70;;;;;;;3.57;100.00;97140.75;2586114;28;20096;-83
2023/01/16 02:55:42;;;;;;;1.10;0.70;;;;;;;3.93;100.00;97147.75;2585905;28;20061;-82
2023/01/16 02:57:07;;;;;;;2.13;0.80;;;;;;;4.04;100.00;97144.91;2585856;28;20144;-84
2023/01/16 02:58:26;;;;;;;1.13;0.80;;;;;;;3.91;100.00;97141.75;2585552;28;20845;-86
2023/01/16 02:59:42;;;;;;;0.90;0.60;;;;;;;3.95;100.00;97141.63;2585884;28;20934;-87
2023/01/16 03:00:59;;;;;;;1.45;0.60;;;;;;;4.01;100.00;97139.81;2585776;28;20054;-84
2023/01/16 03:02:15;;;;;;;1.05;0.65;;;;;;;3.76;100.00;97135.19;2585676;28;20137;-83
2023/01/16 03:03:41;;;;;;;1.58;0.80;;;;;;;3.73;100.00;97127.47;2585681;28;20049;-83
2023/01/16 03:04:57;;;;;;;2.22;1.30;;;;;;;3.68;100.00;97130.16;2585688;28;20085;-84
2023/01/16 03:06:21;;;;;;;1.60;0.82;;;;;;;3.78;100.00;97133.41;2584566;28;20812;-82
2023/01/16 03:08:12;;;;;;;1.00;0.70;;;;;;;3.85;100.00;97124.63;2585440;28;20086;-84
2023/01/16 03:09:48;;;;;;;3.17;0.90;;;;;;;3.86;100.00;97122.88;2585529;28;20412;-83
2023/01/16 03:11:13;;;;;;;2.72;0.95;;;;;;;3.87;100.00;97122.84;2585498;28;20550;-83
2023/01/16 03:13:04;;;;;;;0.77;0.73;;;;;;;3.51;100.00;97118.44;2585556;28;20057;-82
2023/01/16 03:14:30;;;;;;;1.42;0.73;;;;;;;3.71;100.00;97116.31;2585601;28;20077;-83
2023/01/16 03:16:18;;;;;;;1.38;0.80;;;;;;;3.66;100.00;97121.59;2585842;28;20050;-84
2023/01/16 03:17:45;;;;;;;1.65;0.70;;;;;;;3.75;100.00;97112.75;2585045;28;20420;-82
2023/01/16 03:19:25;;;;;;;5.20;0.80;;;;;;;3.88;100.00;97106.44;2585531;28;20324;-82
2023/01/16 03:21:25;;;;;;;3.15;0.75;;;;;;;3.81;100.00;97105.72;2581245;28;20053;-85
2023/01/16 03:22:51;;;;;;;2.63;0.80;;;;;;;3.79;100.00;97101.44;2585820;28;20555;-82
2023/01/16 03:24:20;;;;;;;2.13;0.98;;;;;;;3.33;100.00;97106.72;2585793;28;20598;-83
2023/01/16 03:25:56;;;;;;;1.38;1.00;;;;;;;3.36;100.00;97096.31;2585450;28;20069;-83
2023/01/16 03:27:33;;;;;;;1.88;1.15;;;;;;;3.35;100.00;97104.09;2585536;28;20404;-83
2023/01/16 03:29:15;;;;;;;1.00;0.60;;;;;;;3.43;100.00;97102.22;2585564;28;20061;-82
2023/01/16 03:30:59;;;;;;;1.20;0.70;;;;;;;3.38;100.00;97097.13;2585395;28;20112;-83
2023/01/16 03:32:32;;;;;;;3.65;1.00;;;;;;;3.21;100.00;97094.91;2585601;28;20060;-84
2023/01/16 03:34:03;;;;;;;;;;;;;;;3.41;100.00;97087.59;2586240;28;20108;-84
2023/01/16 03:35:28;;;;;;;1.80;0.70;;;;;;;3.24;100.00;97092.25;2585593;28;19925;-82
2023/01/16 03:36:51;;;;;;;0.80;0.60;;;;;;;3.34;100.00;97086.88;2585717;28;20056;-82
2023/01/16 03:38:12;;;;;;;1.95;0.65;;;;;;;3.42;100.00;97086.72;2585613;28;20088;-83
2023/01/16 03:39:42;;;;;;;3.03;0.85;;;;;;;3.53;100.00;97080.44;2585232;28;20507;-86
2023/01/16 03:41:02;;;;;;;1.13;0.40;;;;;;;3.46;100.00;97085.78;2585403;28;20046;-82
2023/01/16 03:42:53;;;;;;;2.10;0.68;;;;;;;3.53;100.00;97082.16;2585536;28;20077;-82
2023/01/16 03:44:14;;;;;;;1.30;0.70;;;;;;;3.52;100.00;97072.69;2571143;28;20064;-83
2023/01/16 03:45:41;;;;;;;2.58;0.98;;;;;;;3.53;100.00;97069.22;2585330;28;20129;-86
2023/01/16 03:47:00;;;;;;;3.13;0.93;;;;;;;3.68;100.00;97073.22;2585386;28;20133;-82
2023/01/16 03:48:24;;;;;;;2.22;1.15;;;;;;;3.60;100.00;97073.41;2585629;28;20638;-82
2023/01/16 03:49:47;;;;;;;2.58;1.13;;;;;;;3.74;100.00;97080.84;2585369;28;20056;-84
2023/01/16 03:51:06;;;;;;;1.95;0.80;;;;;;;3.73;100.00;97073.97;2585681;28;20527;-83
2023/01/16 03:52:28;;;;;;;2.00;1.30;;;;;;;3.54;100.00;97073.50;2584991;28;20648;-82
2023/01/16 03:53:51;;;;;;;2.67;1.10;;;;;;;3.41;100.00;97070.34;2585583;28;20411;-82
2023/01/16 03:55:15;;;;;;;1.90;1.00;;;;;;;3.52;100.00;97060.63;2585552;28;20999;-84
2023/01/16 03:56:47;;;;;;;1.70;1.30;;;;;;;3.73;100.00;97053.25;2585580;28;20140;-83
2023/01/16 03:58:07;;;;;;;2.80;1.10;;;;;;;3.34;100.00;97058.41;2585714;28;20160;-84
2023/01/16 03:59:23;;;;;;;1.90;1.08;;;;;;;3.61;100.00;97058.69;2585161;28;20445;-84
2023/01/16 04:00:52;;;;;;;2.42;1.00;;;;;;;3.74;100.00;97054.13;2585571;28;20479;-83
2023/01/16 04:02:31;;;;;;;2.90;1.10;;;;;;;3.64;100.00;97056.91;2585021;28;20061;-83
2023/01/16 04:03:58;;;;;;;1.63;0.90;;;;;;;3.50;100.00;97056.38;2585489;28;20045;-86
2023/01/16 04:05:24;;;;;;;3.25;1.20;;;;;;;3.48;100.00;97058.97;2585390;28;20096;-83
2023/01/16 04:06:49;;;;;;;1.75;1.17;;;;;;;3.39;100.00;97051.44;2585032;28;20497;-84
2023/01/16 04:08:19;;;;;;;2.33;1.23;;;;;;;3.50;100.00;97048.59;2585585;28;20896;-85
2023/01/16 04:09:47;;;;;;;2.40;0.90;;;;;;;3.02;100.00;97041.84;2585397;28;20046;-83
2023/01/16 04:11:04;;;;;;;2.50;0.85;;;;;;;2.82;100.00;97038.78;2585100;28;20054;-84
2023/01/16 04:12:23;;;;;;;1.38;0.93;;;;;;;3.17;100.00;97036.34;2585424;28;20045;-83
2023/01/16 04:13:43;;;;;;;1.80;1.10;;;;;;;3.29;100.00;97030.09;2584999;28;20108;-83
2023/01/16 04:15:02;;;;;;;2.83;1.50;;;;;;;3.14;100.00;97033.84;2584386;28;20056;-87
2023/01/16 04:16:19;;;;;;;2.22;1.13;;;;;;;3.18;100.00;97025.13;2585052;28;20046;-83
2023/01/16 04:17:37;;;;;;;1.73;1.00;;;;;;;3.27;100.00;97024.06;2585325;28;20058;-84
2023/01/16 04:18:55;;;;;;;3.45;1.20;;;;;;;3.45;100.00;97021.97;2585442;28;20164;-82
2023/01/16 04:20:12;;;;;;;3.58;1.33;;;;;;;3.20;100.00;97025.94;2585316;28;20088;-83
2023/01/16 04:21:28;;;;;;;4.00;1.10;;;;;;;3.21;100.00;97022.50;2585382;28;20053;-84
2023/01/16 04:22:48;;;;;;;2.75;0.90;;;;;;;3.33;100.00;97015.31;2585303;28;20077;-83
2023/01/16 04:24:04;;;;;;;3.75;1.55;;;;;;;3.18;100.00;97012.19;2586179;28;20049;-83
2023/01/16 04:25:20;;;;;;;2.47;1.55;;;;;;;3.37;100.00;97004.88;2587427;28;20149;-83
2023/01/16 04:26:36;;;;;;;2.20;1.00;;;;;;;3.20;100.00;96996.66;2587050;28;20926;-87
2023/01/16 04:27:51;;;;;;;1.70;1.05;;;;;;;3.21;100.00;97006.13;2587596;28;20057;-84
2023/01/16 04:29:07;;;;;;;1.50;0.93;;;;;;;3.28;100.00;96999.06;2586899;28;20119;-83
2023/01/16 04:30:23;;;;;;;3.13;1.20;;;;;;;3.24;100.00;97001.72;2585565;28;20516;-82
2023/01/16 04:31:38;;;;;;;4.30;1.00;;;;;;;3.28;100.00;97001.66;2586991;28;20467;-83
2023/01/16 04:32:54;;;;;;;4.82;1.30;;;;;;;2.89;100.00;96985.22;2587351;28;20988;-82
2023/01/16 04:34:09;;;;;;;4.28;0.95;;;;;;;3.32;100.00;96992.94;2587296;28;20080;-83
2023/01/16 04:35:25;;;;;;;3.47;0.90;;;;;;;3.35;100.00;96987.69;2586360;28;20054;-83
2023/01/16 04:36:40;;;;;;;2.15;1.08;;;;;;;3.44;100.00;96984.91;2586582;28;20049;-84
2023/01/16 04:37:56;;;;;;;1.95;1.02;;;;;;;3.50;100.00;96989.09;2587098;28;20081;-82
2023/01/16 04:39:12;;;;;;;2.83;0.82;;;;;;;3.33;100.00;96994.63;2585892;28;20061;-83
2023/01/16 04:40:28;;;;;;;2.10;0.90;;;;;;;2.96;100.00;96986.81;2584914;28;20045;-84
2023/01/16 04:41:46;;;;;;;1.50;0.80;;;;;;;3.21;100.00;96985.41;2586187;28;20159;-84
2023/01/16 04:43:02;;;;;;;1.35;1.10;;;;;;;3.21;100.00;96985.41;2586462;28;20137;-83
2023/01/16 04:44:17;;;;;;;2.85;1.20;;;;;;;3.48;100.00;96976.16;2586275;28;20062;-84
2023/01/16 04:45:33;;;;;;;2.00;0.80;;;;;;;3.34;100.00;96979.09;2586713;28;20137;-85
2023/01/16 04:46:48;;;;;;;1.88;0.82;;;;;;;3.25;100.00;96976.69;2586659;28;20086;-83
2023/01/16 04:48:04;;;;;;;3.03;1.00;;;;;;;3.23;100.00;96969.00;2587019;28;20049;-86
2023/01/16 04:49:20;;;;;;;1.98;1.10;;;;;;;3.39;100.00;96969.47;2587043;28;20085;-84
2023/01/16 04:50:35;;;;;;;3.88;1.38;;;;;;;3.27;100.00;96972.34;2586904;28;20417;-83
2023/01/16 04:51:51;;;;;;;3.97;0.93;;;;;;;3.61;100.00;96960.34;2586872;28;20112;-84
2023/01/16 04:53:07;;;;;;;3.40;0.82;;;;;;;3.33;100.00;96958.41;2587217;28;20069;-83
2023/01/16 04:54:22;;;;;;;2.72;0.90;;;;;;;3.38;100.00;96959.19;2587070;28;20046;-83
2023/01/16 04:55:38;;;;;;;1.73;0.82;;;;;;;3.25;100.00;96961.19;2587098;28;20080;-82
2023/01/16 04:56:54;;;;;;;4.75;1.20;;;;;;;3.44;100.00;96953.00;2586892;28;20065;-82
2023/01/16 04:58:10;;;;;;;4.45;1.35;;;;;;;3.53;100.00;96956.22;2587057;28;20042;-83
2023/01/16 04:59:25;;;;;;;8.77;2.30;;;;;;;3.50;100.00;96947.69;2586997;28;20050;-83
2023/01/16 05:00:41;;;;;;;5.03;2.03;;;;;;;3.52;100.00;96946.78;2586581;28;20050;-83
2023/01/16 05:01:56;;;;;;;12.10;3.67;;;;;;;3.79;100.00;96953.88;2586020;28;20850;-82
2023/01/16 05:03:12;;;;;;;12.02;3.47;;;;;;;3.61;100.00;96947.41;2587027;28;20053;-85
2023/01/16 05:04:27;;;;;;;7.60;1.73;;;;;;;3.32;100.00;96948.97;2587099;28;20041;-83
2023/01/16 05:05:43;;;;;;;7.22;1.58;;;;;;;3.56;100.00;96954.44;2586863;28;20049;-83
2023/01/16 05:06:59;;;;;;;2.28;1.27;;;;;;;3.45;100.00;96947.78;2586676;28;20145;-83
2023/01/16 05:08:17;;;;;;;4.47;1.00;;;;;;;3.57;100.00;96941.50;2586808;28;20500;-83
2023/01/16 05:09:33;;;;;;;2.78;1.20;;;;;;;3.61;100.00;96945.69;2585890;28;20057;-82
2023/01/16 05:10:49;;;;;;;1.67;0.90;;;;;;;3.27;100.00;96948.22;2585963;28;20053;-83
2023/01/16 05:12:04;;;;;;;3.75;1.10;;;;;;;3.53;100.00;96938.13;2586741;28;20679;-83
2023/01/16 05:13:21;;;;;;;3.80;1.17;;;;;;;3.66;100.00;96943.00;2586471;28;20100;-83
2023/01/16 05:14:36;;;;;;;3.42;1.30;;;;;;;3.79;100.00;96939.22;2586686;28;20050;-82
2023/01/16 05:15:52;;;;;;;4.68;1.70;;;;;;;3.63;100.00;96936.16;2586967;28;20132;-84
2023/01/16 05:17:08;;;;;;;9.20;2.67;;;;;;;3.62;100.00;96931.00;2586544;28;20448;-83
2023/01/16 05:18:24;;;;;;;6.78;2.70;;;;;;;3.47;100.00;96924.47;2586899;28;20100;-83
2023/01/16 05:19:40;;;;;;;5.22;1.65;;;;;;;3.29;100.00;96928.34;2586642;28;20068;-83
2023/01/16 05:20:56;;;;;;;3.22;1.30;;;;;;;3.46;100.00;96930.53;2586505;28;20391;-84
2023/01/16 05:22:11;;;;;;;5.10;1.50;;;;;;;3.42;100.00;96927.16;2586635;28;20579;-83
2023/01/16 05:23:27;;;;;;;4.88;2.00;;;;;;;3.45;100.00;96924.50;2586816;28;20484;-83
2023/01/16 05:24:42;;;;;;;3.45;1.42;;;;;;;3.28;100.00;96924.06;2586162;28;20064;-83
2023/01/16 05:25:59;;;;;;;2.97;1.63;;;;;;;3.26;100.00;96921.50;2585889;28;20046;-82
2023/01/16 05:27:14;;;;;;;2.80;1.45;;;;;;;3.48;100.00;96921.00;2586771;28;20817;-84
2023/01/16 05:28:30;;;;;;;1.80;1.23;;;;;;;3.47;100.00;96917.53;2586671;28;20056;-83
2023/01/16 05:29:46;;;;;;;2.25;1.10;;;;;;;3.67;100.00;96913.63;2586719;28;20484;-84
2023/01/16 05:31:02;;;;;;;1.67;1.40;;;;;;;3.51;100.00;96907.97;2583724;28;20084;-81
2023/01/16 05:32:18;;;;;;;5.28;1.23;;;;;;;3.51;100.00;96907.97;2585472;28;20065;-82
2023/01/16 05:33:34;;;;;;;3.05;1.38;;;;;;;3.46;100.00;96915.00;2586556;28;20607;-81
2023/01/16 05:34:49;;;;;;;3.17;1.10;;;;;;;3.65;100.00;96916.25;2586468;28;20157;-85
2023/01/16 05:36:09;;;;;;;4.88;1.48;;;;;;;3.58;100.00;96904.38;2585915;28;20045;-83
2023/01/16 05:37:24;;;;;;;2.80;1.20;;;;;;;3.68;100.00;96915.34;2586255;28;20574;-82
2023/01/16 05:38:40;;;;;;;4.85;1.60;;;;;;;3.78;100.00;96913.34;2586461;28;20045;-83
2023/01/16 05:39:56;;;;;;;2.58;1.20;;;;;;;3.78;100.00;96911.63;2586079;28;20054;-83
2023/01/16 05:41:13;;;;;;;5.38;1.88;;;;;;;3.90;100.00;96912.19;2585855;28;20089;-82
2023/01/16 05:42:28;;;;;;;5.10;1.95;;;;;;;3.85;100.00;96907.16;2585992;28;20050;-82
2023/01/16 05:43:44;;;;;;;6.88;2.30;;;;;;;3.95;100.00;96903.41;2585991;28;20137;-83
2023/01/16 05:44:59;;;;;;;5.03;1.77;;;;;;;3.84;100.00;96902.84;2586290;28;20141;-83
2023/01/16 05:46:15;;;;;;;6.07;1.65;;;;;;;3.77;100.00;96909.94;2584676;28;20695;-82
2023/01/16 05:47:30;;;;;;;3.15;1.40;;;;;;;3.79;100.00;96905.56;2585376;28;20045;-81
2023/01/16 05:48:46;;;;;;;8.25;1.50;;;;;;;3.84;100.00;96904.59;2585272;28;20045;-81
2023/01/16 05:50:03;;;;;;;3.03;1.48;;;;;;;3.81;100.00;96900.34;2586124;28;20088;-81
2023/01/16 05:51:19;;;;;;;3.33;1.45;;;;;;;3.98;100.00;96894.72;2595495;28;20076;-83
2023/01/16 05:52:34;;;;;;;4.85;1.75;;;;;;;3.91;100.00;96893.16;2591546;28;20052;-82
2023/01/16 05:53:53;;;;;;;3.72;1.50;;;;;;;3.76;100.00;96892.69;2585759;28;20045;-82
2023/01/16 05:55:08;;;;;;;3.53;1.52;;;;;;;3.81;100.00;96890.84;2585327;28;20120;-82
2023/01/16 05:56:25;;;;;;;3.47;1.50;;;;;;;3.96;100.00;96888.72;2585520;28;20041;-82
2023/01/16 05:57:40;;;;;;;3.53;1.60;;;;;;;3.76;100.00;96887.50;2585699;28;20254;-83
2023/01/16 05:58:57;;;;;;;4.40;1.63;;;;;;;4.09;100.00;96884.06;2585201;28;20050;-82
2023/01/16 06:00:13;;;;;;;5.78;1.55;;;;;;;3.91;100.00;96873.31;2585703;28;20085;-82
2023/01/16 06:01:29;;;;;;;5.70;1.70;;;;;;;3.97;100.00;96869.72;2585473;28;20049;-81
2023/01/16 06:02:46;;;;;;;4.05;1.42;;;;;;;4.28;100.00;96871.47;2585890;28;20049;-82
2023/01/16 06:04:01;;;;;;;3.75;1.92;;;;;;;4.30;100.00;96871.41;2586357;28;20041;-88
2023/01/16 06:05:17;;;;;;;3.53;1.60;;;;;;;4.36;100.00;96866.06;2586027;28;20386;-83
2023/01/16 06:06:33;;;;;;;4.07;1.73;;;;;;;4.32;100.00;96862.69;2585993;28;20061;-83
2023/01/16 06:07:54;;;;;;;5.03;1.77;;;;;;;4.21;100.00;96859.59;2586398;28;20080;-82
2023/01/16 06:09:09;;;;;;;4.57;1.83;;;;;;;3.99;100.00;96861.91;2586000;28;20084;-83
2023/01/16 06:10:26;;;;;;;5.10;2.50;;;;;;;4.09;100.00;96852.97;2586252;28;20054;-83
2023/01/16 06:11:41;;;;;;;6.20;2.00;;;;;;;3.67;100.00;96846.34;2586438;28;20042;-84
2023/01/16 06:12:57;;;;;;;3.05;1.50;;;;;;;3.91;100.00;96855.19;2586302;28;20049;-84
2023/01/16 06:14:12;;;;;;;5.35;1.30;;;;;;;3.72;100.00;96844.47;2586306;28;20492;-83
2023/01/16 06:15:29;;;;;;;2.38;1.13;;;;;;;3.89;100.00;96838.84;2585635;28;20211;-81
2023/01/16 06:16:44;;;;;;;4.75;1.33;;;;;;;3.59;100.00;96838.78;2585824;28;20081;-84
2023/01/16 06:18:00;;;;;;;2.10;1.00;;;;;;;3.87;100.00;96837.19;2586225;28;20060;-82
2023/01/16 06:19:15;;;;;;;2.75;1.08;;;;;;;3.67;100.00;96842.00;2586114;28;20042;-83
2023/01/16 06:20:31;;;;;;;2.25;1.15;;;;;;;3.61;100.00;96834.41;2586466;28;20046;-83
2023/01/16 06:21:47;;;;;;;3.38;1.52;;;;;;;3.39;100.00;96831.53;2585360;28;20049;-83
2023/01/16 06:23:02;;;;;;;2.10;1.17;;;;;;;3.72;100.00;96831.53;2585869;28;20602;-84